createdAt,value
2023-03-31T00:01:22.759Z,31.67
2023-03-31T00:07:10.176Z,31.79
2023-03-31T00:13:03.673Z,31.81
2023-03-31T00:18:46.422Z,31.81
2023-03-31T00:24:33.962Z,31.95
2023-03-31T00:30:16.462Z,32.02
2023-03-31T00:36:05.022Z,32.07
2023-03-31T00:41:52.521Z,32.13
2023-03-31T00:47:35.389Z,32.15
2023-03-31T00:58:44.753Z,32.19
2023-03-31T01:04:03.671Z,32.27
2023-03-31T01:09:22.639Z,32.31
2023-03-31T01:15:09.824Z,32.27
2023-03-31T01:20:52.250Z,32.34
2023-03-31T01:26:08.667Z,32.40
2023-03-31T01:31:48.394Z,32.48
2023-03-31T01:37:01.669Z,32.51
2023-03-31T01:42:49.329Z,32.54
2023-03-31T01:48:06.105Z,32.57
2023-03-31T01:53:19.840Z,32.55
2023-03-31T01:58:27.224Z,32.59
2023-03-31T02:03:34.916Z,32.62
2023-03-31T02:08:42.490Z,32.69
2023-03-31T02:13:50.036Z,32.72
2023-03-31T02:18:59.482Z,32.72
2023-03-31T02:24:07.200Z,32.75
2023-03-31T02:29:14.700Z,32.80
2023-03-31T02:34:22.422Z,32.81
2023-03-31T02:39:30.012Z,32.82
2023-03-31T02:44:37.759Z,32.90
2023-03-31T02:49:56.638Z,32.91
2023-03-31T02:55:08.952Z,32.94
2023-03-31T03:00:16.567Z,32.96
2023-03-31T03:06:03.849Z,32.99
2023-03-31T03:11:44.428Z,33.00
2023-03-31T03:17:26.952Z,33.03
2023-03-31T03:23:09.645Z,33.04
2023-03-31T03:28:52.029Z,33.07
2023-03-31T03:33:59.551Z,33.14
2023-03-31T03:39:42.394Z,33.15
2023-03-31T03:45:29.655Z,33.20
2023-03-31T03:51:12.976Z,33.19
2023-03-31T03:56:20.601Z,33.18
2023-03-31T04:02:07.890Z,33.17
2023-03-31T04:07:50.169Z,33.17
2023-03-31T04:13:35.644Z,33.22
2023-03-31T04:19:18.128Z,33.29
2023-03-31T04:25:00.523Z,33.30
2023-03-31T04:35:55.915Z,33.29
2023-03-31T04:41:43.110Z,33.28
2023-03-31T04:47:40.699Z,33.25
2023-03-31T04:53:23.157Z,33.25
2023-03-31T05:04:11.724Z,33.25
2023-03-31T05:09:28.704Z,33.26
2023-03-31T05:15:15.930Z,33.24
2023-03-31T05:20:26.614Z,33.26
2023-03-31T05:26:06.859Z,33.20
2023-03-31T05:31:21.257Z,33.25
2023-03-31T05:36:53.259Z,33.20
2023-03-31T05:41:56.041Z,33.24
2023-03-31T05:47:08.123Z,33.24
2023-03-31T05:52:15.615Z,33.23
2023-03-31T05:57:23.094Z,33.22
2023-03-31T06:02:30.512Z,33.10
2023-03-31T06:07:37.800Z,33.13
2023-03-31T06:12:45.430Z,32.99
2023-03-31T06:17:52.921Z,32.92
2023-03-31T06:23:04.983Z,32.94
2023-03-31T06:28:12.410Z,33.01
2023-03-31T06:33:19.571Z,32.87
2023-03-31T06:38:26.850Z,32.90
2023-03-31T06:43:34.135Z,32.91
2023-03-31T06:48:41.437Z,32.77
2023-03-31T06:53:48.580Z,32.83
2023-03-31T06:58:55.979Z,32.83
2023-03-31T07:04:03.169Z,32.79
2023-03-31T07:09:10.597Z,32.89
2023-03-31T07:14:18.361Z,32.91
2023-03-31T07:19:25.503Z,32.89
2023-03-31T07:24:32.766Z,32.93
2023-03-31T07:29:39.979Z,32.99
2023-03-31T07:34:47.143Z,33.38
2023-03-31T07:39:54.338Z,33.19
2023-03-31T07:45:01.543Z,32.92
2023-03-31T07:50:08.697Z,32.77
2023-03-31T07:55:15.894Z,32.31
2023-03-31T08:00:23.087Z,32.13
2023-03-31T08:05:30.352Z,32.13
2023-03-31T08:10:37.541Z,32.84
2023-03-31T08:15:44.851Z,33.81
2023-03-31T08:20:52.010Z,33.62
2023-03-31T08:25:59.217Z,33.60
2023-03-31T08:31:06.407Z,33.07
2023-03-31T08:36:13.700Z,32.89
2023-03-31T08:41:20.850Z,32.87
2023-03-31T08:46:28.242Z,32.59
2023-03-31T08:51:35.418Z,32.50
2023-03-31T08:56:42.754Z,32.43
2023-03-31T09:01:56.236Z,32.33
2023-03-31T09:06:56.983Z,32.15
2023-03-31T09:12:04.162Z,32.33
2023-03-31T09:17:14.517Z,32.18
2023-03-31T09:22:21.666Z,32.42
2023-03-31T09:27:28.972Z,32.51
2023-03-31T09:32:36.448Z,32.82
2023-03-31T09:37:43.616Z,32.83
2023-03-31T09:42:50.889Z,32.38
2023-03-31T09:47:58.255Z,32.12
2023-03-31T09:53:05.374Z,31.91
2023-03-31T09:58:12.679Z,31.90
2023-03-31T10:03:19.897Z,31.97
2023-03-31T10:08:27.157Z,31.88
2023-03-31T10:13:34.415Z,31.81
2023-03-31T10:18:41.635Z,31.78
2023-03-31T10:23:48.784Z,31.67
2023-03-31T10:28:56.057Z,31.64
2023-03-31T10:34:03.362Z,31.62
2023-03-31T10:39:10.539Z,31.96
2023-03-31T10:44:17.706Z,31.84
2023-03-31T10:49:24.924Z,31.71
2023-03-31T10:54:32.167Z,31.59
2023-03-31T10:59:39.384Z,31.85
2023-03-31T11:04:46.704Z,31.67
2023-03-31T11:09:53.862Z,31.63
2023-03-31T11:15:01.134Z,31.65
2023-03-31T11:20:08.449Z,31.62
2023-03-31T11:25:15.627Z,31.57
2023-03-31T11:30:22.781Z,31.71
2023-03-31T11:35:30.071Z,31.47
2023-03-31T11:40:37.255Z,31.57
2023-03-31T11:45:44.631Z,31.54
2023-03-31T11:50:51.839Z,31.67
2023-03-31T11:55:59.011Z,31.79
2023-03-31T12:01:06.289Z,31.87
2023-03-31T12:06:13.526Z,31.95
2023-03-31T12:11:20.726Z,32.22
2023-03-31T12:16:28.016Z,32.10
2023-03-31T12:21:35.261Z,32.19
2023-03-31T12:26:42.548Z,32.09
2023-03-31T12:31:49.890Z,32.22
2023-03-31T12:36:57.031Z,31.83
2023-03-31T12:42:04.389Z,32.76
2023-03-31T12:47:11.658Z,33.17
2023-03-31T12:52:18.954Z,32.92
2023-03-31T12:57:26.240Z,34.12
2023-03-31T13:02:33.543Z,34.26
2023-03-31T13:07:40.801Z,33.96
2023-03-31T13:12:48.025Z,33.36
2023-03-31T13:17:55.285Z,33.01
2023-03-31T13:23:02.452Z,31.84
2023-03-31T13:28:09.621Z,32.31
2023-03-31T13:33:18.321Z,33.26
2023-03-31T13:38:24.171Z,33.40
2023-03-31T13:43:31.409Z,33.02
2023-03-31T13:48:38.686Z,32.16
2023-03-31T13:53:45.916Z,31.69
2023-03-31T13:58:53.146Z,31.38
2023-03-31T14:04:00.426Z,31.28
2023-03-31T14:09:07.669Z,31.27
2023-03-31T14:14:14.873Z,31.22
2023-03-31T14:24:29.289Z,29.63
2023-03-31T14:29:36.480Z,30.22
2023-03-31T14:34:43.777Z,30.63
2023-03-31T14:39:50.943Z,30.90
2023-03-31T14:44:58.122Z,30.88
2023-03-31T14:50:07.473Z,30.97
2023-03-31T14:55:12.498Z,30.19
2023-03-31T15:00:19.665Z,30.74
2023-03-31T15:05:26.886Z,31.43
2023-03-31T15:10:34.014Z,30.32
2023-03-31T15:15:41.250Z,31.60
2023-03-31T15:20:48.412Z,31.81
2023-03-31T15:25:55.611Z,31.75
2023-03-31T15:31:10.101Z,30.72
2023-03-31T15:36:09.985Z,31.33
2023-03-31T15:41:17.171Z,31.02
2023-03-31T15:46:24.352Z,31.32
2023-03-31T15:51:31.523Z,31.22
2023-03-31T15:56:38.825Z,31.35
2023-03-31T16:01:46.113Z,31.10
2023-03-31T16:06:53.293Z,30.39
2023-03-31T16:12:00.584Z,29.68
2023-03-31T16:17:07.907Z,28.97
2023-03-31T16:22:15.297Z,28.31
2023-03-31T16:27:22.597Z,28.11
2023-03-31T16:32:29.820Z,28.61
2023-03-31T16:37:37.055Z,28.71
2023-03-31T16:42:44.300Z,28.71
2023-03-31T16:47:53.113Z,29.62
2023-03-31T16:52:58.632Z,29.56
2023-03-31T16:58:05.862Z,29.68
2023-03-31T17:03:14.313Z,29.71
2023-03-31T17:08:21.615Z,29.76
2023-03-31T17:13:28.841Z,29.84
2023-03-31T17:18:36.253Z,29.89
2023-03-31T17:23:43.452Z,29.83
2023-03-31T17:28:50.793Z,29.82
2023-03-31T17:33:58.307Z,29.87
2023-03-31T17:39:05.727Z,29.93
2023-03-31T17:44:13.216Z,29.90
2023-03-31T17:49:21.147Z,29.91
2023-03-31T17:54:28.667Z,29.94
2023-03-31T17:59:37.609Z,29.94
2023-03-31T18:04:43.598Z,30.01
2023-03-31T18:09:51.080Z,29.97
2023-03-31T18:14:58.633Z,29.91
2023-03-31T18:20:06.011Z,29.95
2023-03-31T18:25:13.451Z,29.99
2023-03-31T18:30:20.971Z,29.99
2023-03-31T18:35:28.324Z,29.98
2023-03-31T18:40:35.857Z,29.94
2023-03-31T18:45:43.598Z,29.92
2023-03-31T18:50:51.135Z,29.92
2023-03-31T18:55:58.817Z,29.92
2023-03-31T19:01:06.523Z,29.88
2023-03-31T19:06:14.047Z,29.84
2023-03-31T19:11:21.664Z,29.86
2023-03-31T19:16:29.417Z,29.87
2023-03-31T19:21:37.092Z,29.86
2023-03-31T19:26:44.810Z,29.92
2023-03-31T19:31:52.607Z,29.89
2023-03-31T19:37:00.447Z,29.90
2023-03-31T19:42:08.263Z,29.88
2023-03-31T19:47:16.016Z,29.93
2023-03-31T19:52:23.394Z,29.89
2023-03-31T19:57:30.854Z,29.86
2023-03-31T20:02:38.614Z,29.85
2023-03-31T20:07:46.052Z,29.90
2023-03-31T20:12:53.825Z,29.93
2023-03-31T20:18:01.503Z,29.88
2023-03-31T20:23:09.177Z,29.86
2023-03-31T20:28:16.788Z,29.86
2023-03-31T20:33:24.586Z,29.81
2023-03-31T20:38:31.948Z,29.72
2023-03-31T20:43:39.203Z,29.77
2023-03-31T20:48:46.560Z,29.75
2023-03-31T20:53:53.787Z,29.75
2023-03-31T20:59:01.103Z,29.76
2023-03-31T21:04:08.512Z,29.65
2023-03-31T21:09:15.629Z,29.61
2023-03-31T21:14:22.832Z,29.57
2023-03-31T21:19:30.154Z,29.59
2023-03-31T21:24:37.414Z,29.56
2023-03-31T21:29:44.714Z,29.59
2023-03-31T21:34:52.014Z,29.57
2023-03-31T21:39:59.284Z,29.61
2023-03-31T21:45:06.578Z,29.59
2023-03-31T21:50:13.871Z,29.55
2023-03-31T21:55:21.139Z,29.64
2023-03-31T22:00:28.390Z,29.61
2023-03-31T22:05:35.674Z,29.62
2023-03-31T22:10:42.906Z,29.62
2023-03-31T22:15:50.188Z,29.57
2023-03-31T22:21:39.155Z,29.92
2023-03-31T22:27:35.140Z,29.86
2023-03-31T22:32:53.912Z,29.90
2023-03-31T22:38:36.198Z,29.87
2023-03-31T22:48:57.020Z,29.96
2023-03-31T22:54:18.927Z,30.01
2023-03-31T23:00:33.736Z,30.09
2023-03-31T23:07:11.096Z,30.12
2023-03-31T23:12:09.856Z,30.23
2023-03-31T23:17:24.662Z,30.33
2023-03-31T23:23:10.389Z,30.39
2023-03-31T23:28:53.137Z,30.38
2023-03-31T23:34:14.667Z,30.31
2023-03-31T23:40:01.889Z,30.43
2023-03-31T23:45:49.349Z,30.31
2023-03-31T23:52:21.651Z,30.33
2023-03-31T23:57:06.047Z,30.38
